sensor_id;sensor_type;location;lat;lon;timestamp;temperature;humidity
44305;DHT22;30019;50.576;8.568;2024-01-06T00:01:23;3.70;99.90
44305;DHT22;30019;50.576;8.568;2024-01-06T00:11:06;3.50;99.90
44305;DHT22;30019;50.576;8.568;2024-01-06T00:13:31;3.40;99.90
44305;DHT22;30019;50.576;8.568;2024-01-06T00:15:57;3.40;99.90
44305;DHT22;30019;50.576;8.568;2024-01-06T00:18:22;3.40;99.90
44305;DHT22;30019;50.576;8.568;2024-01-06T00:20:48;3.50;99.90
44305;DHT22;30019;50.576;8.568;2024-01-06T00:23:13;3.60;99.90
44305;DHT22;30019;50.576;8.568;2024-01-06T00:25:39;3.80;99.90
44305;DHT22;30019;50.576;8.568;2024-01-06T00:28:04;3.80;99.90
44305;DHT22;30019;50.576;8.568;2024-01-06T00:30:30;4.00;99.90
44305;DHT22;30019;50.576;8.568;2024-01-06T00:32:55;4.10;99.90
44305;DHT22;30019;50.576;8.568;2024-01-06T08:34:43;5.60;99.90
44305;DHT22;30019;50.576;8.568;2024-01-06T08:37:08;5.60;99.90
44305;DHT22;30019;50.576;8.568;2024-01-06T08:39:34;5.50;99.90
44305;DHT22;30019;50.576;8.568;2024-01-06T08:41:59;5.40;99.90
44305;DHT22;30019;50.576;8.568;2024-01-06T08:44:25;5.40;99.90
44305;DHT22;30019;50.576;8.568;2024-01-06T08:46:50;5.40;99.90
44305;DHT22;30019;50.576;8.568;2024-01-06T08:49:16;5.30;99.90
44305;DHT22;30019;50.576;8.568;2024-01-06T08:51:42;5.50;99.90
44305;DHT22;30019;50.576;8.568;2024-01-06T08:54:08;5.60;99.90
44305;DHT22;30019;50.576;8.568;2024-01-06T08:56:34;5.60;99.90
44305;DHT22;30019;50.576;8.568;2024-01-06T08:58:59;5.70;99.90
44305;DHT22;30019;50.576;8.568;2024-01-06T09:01:25;5.80;99.90
44305;DHT22;30019;50.576;8.568;2024-01-06T09:03:50;5.90;99.90
44305;DHT22;30019;50.576;8.568;2024-01-06T09:06:16;5.80;99.90
44305;DHT22;30019;50.576;8.568;2024-01-06T09:08:41;5.70;99.90
44305;DHT22;30019;50.576;8.568;2024-01-06T09:11:07;5.80;99.90
44305;DHT22;30019;50.576;8.568;2024-01-06T09:13:32;5.90;99.90
44305;DHT22;30019;50.576;8.568;2024-01-06T09:15:58;5.90;99.90
44305;DHT22;30019;50.576;8.568;2024-01-06T09:18:24;5.90;99.90
44305;DHT22;30019;50.576;8.568;2024-01-06T09:20:50;5.80;99.90
44305;DHT22;30019;50.576;8.568;2024-01-06T09:23:15;5.90;99.90
44305;DHT22;30019;50.576;8.568;2024-01-06T09:25:41;5.80;99.90
44305;DHT22;30019;50.576;8.568;2024-01-06T09:28:06;5.70;99.90
44305;DHT22;30019;50.576;8.568;2024-01-06T09:30:32;5.80;99.90
44305;DHT22;30019;50.576;8.568;2024-01-06T09:32:57;5.60;99.90
44305;DHT22;30019;50.576;8.568;2024-01-06T09:35:23;5.60;99.90
44305;DHT22;30019;50.576;8.568;2024-01-06T09:37:49;5.70;99.90
44305;DHT22;30019;50.576;8.568;2024-01-06T09:40:14;5.70;99.90
44305;DHT22;30019;50.576;8.568;2024-01-06T09:42:46;5.80;99.90
44305;DHT22;30019;50.576;8.568;2024-01-06T09:45:11;5.90;99.90
44305;DHT22;30019;50.576;8.568;2024-01-06T09:47:37;5.80;99.90
44305;DHT22;30019;50.576;8.568;2024-01-06T09:50:05;5.80;99.90
44305;DHT22;30019;50.576;8.568;2024-01-06T09:52:34;5.80;99.90
44305;DHT22;30019;50.576;8.568;2024-01-06T09:55:04;5.70;99.90
44305;DHT22;30019;50.576;8.568;2024-01-06T09:57:31;5.80;99.90
44305;DHT22;30019;50.576;8.568;2024-01-06T09:59:56;5.80;99.90
44305;DHT22;30019;50.576;8.568;2024-01-06T10:02:22;5.90;99.90
44305;DHT22;30019;50.576;8.568;2024-01-06T10:04:49;5.80;99.90
44305;DHT22;30019;50.576;8.568;2024-01-06T10:07:15;6.10;99.90
44305;DHT22;30019;50.576;8.568;2024-01-06T10:09:40;6.10;99.90
44305;DHT22;30019;50.576;8.568;2024-01-06T10:12:07;6.10;99.90
44305;DHT22;30019;50.576;8.568;2024-01-06T10:14:33;6.00;99.90
44305;DHT22;30019;50.576;8.568;2024-01-06T10:16:58;6.00;99.90
44305;DHT22;30019;50.576;8.568;2024-01-06T10:19:24;6.00;99.90
44305;DHT22;30019;50.576;8.568;2024-01-06T10:21:49;6.10;99.90
44305;DHT22;30019;50.576;8.568;2024-01-06T10:24:17;6.10;99.90
44305;DHT22;30019;50.576;8.568;2024-01-06T10:26:42;6.10;99.90
44305;DHT22;30019;50.576;8.568;2024-01-06T10:29:08;6.10;99.90
44305;DHT22;30019;50.576;8.568;2024-01-06T10:31:33;6.10;99.90
44305;DHT22;30019;50.576;8.568;2024-01-06T10:33:59;6.10;99.90
44305;DHT22;30019;50.576;8.568;2024-01-06T10:36:25;6.20;99.90
44305;DHT22;30019;50.576;8.568;2024-01-06T10:38:52;6.10;99.90
44305;DHT22;30019;50.576;8.568;2024-01-06T10:41:17;6.00;99.90
44305;DHT22;30019;50.576;8.568;2024-01-06T10:43:44;6.00;99.90
44305;DHT22;30019;50.576;8.568;2024-01-06T10:46:12;6.10;99.90
44305;DHT22;30019;50.576;8.568;2024-01-06T12:06:52;6.50;99.90
44305;DHT22;30019;50.576;8.568;2024-01-06T12:09:17;6.70;99.90
44305;DHT22;30019;50.576;8.568;2024-01-06T12:11:44;6.70;99.90
44305;DHT22;30019;50.576;8.568;2024-01-06T12:14:12;6.70;99.90
44305;DHT22;30019;50.576;8.568;2024-01-06T12:16:37;6.70;99.90
44305;DHT22;30019;50.576;8.568;2024-01-06T12:19:03;6.70;99.90
44305;DHT22;30019;50.576;8.568;2024-01-06T12:21:29;6.70;99.90
44305;DHT22;30019;50.576;8.568;2024-01-06T12:26:42;6.90;99.90
44305;DHT22;30019;50.576;8.568;2024-01-06T12:29:08;6.80;99.90
44305;DHT22;30019;50.576;8.568;2024-01-06T12:31:34;6.70;99.90
44305;DHT22;30019;50.576;8.568;2024-01-06T12:33:59;6.70;99.90
44305;DHT22;30019;50.576;8.568;2024-01-06T12:36:25;6.60;99.90
44305;DHT22;30019;50.576;8.568;2024-01-06T12:38:50;6.70;99.90
44305;DHT22;30019;50.576;8.568;2024-01-06T12:41:16;6.40;99.90
44305;DHT22;30019;50.576;8.568;2024-01-06T12:43:41;6.40;99.90
44305;DHT22;30019;50.576;8.568;2024-01-06T12:46:07;6.30;99.90
44305;DHT22;30019;50.576;8.568;2024-01-06T12:48:32;6.20;99.90
44305;DHT22;30019;50.576;8.568;2024-01-06T12:50:58;6.00;99.90
44305;DHT22;30019;50.576;8.568;2024-01-06T12:53:23;5.90;99.90
44305;DHT22;30019;50.576;8.568;2024-01-06T12:55:49;5.80;99.90
44305;DHT22;30019;50.576;8.568;2024-01-06T12:58:14;5.80;99.90
44305;DHT22;30019;50.576;8.568;2024-01-06T13:00:40;5.70;99.90
44305;DHT22;30019;50.576;8.568;2024-01-06T13:03:05;5.70;99.90
44305;DHT22;30019;50.576;8.568;2024-01-06T13:05:31;5.70;99.90
44305;DHT22;30019;50.576;8.568;2024-01-06T13:07:56;5.70;99.90
44305;DHT22;30019;50.576;8.568;2024-01-06T13:10:23;5.60;99.90
44305;DHT22;30019;50.576;8.568;2024-01-06T13:12:48;5.60;99.90
44305;DHT22;30019;50.576;8.568;2024-01-06T13:15:14;5.60;99.90
44305;DHT22;30019;50.576;8.568;2024-01-06T13:17:39;5.60;99.90
44305;DHT22;30019;50.576;8.568;2024-01-06T13:20:05;5.60;99.90
44305;DHT22;30019;50.576;8.568;2024-01-06T13:22:31;5.60;99.90
44305;DHT22;30019;50.576;8.568;2024-01-06T13:24:56;5.60;99.90
44305;DHT22;30019;50.576;8.568;2024-01-06T13:27:22;5.60;99.90
44305;DHT22;30019;50.576;8.568;2024-01-06T13:29:48;5.60;99.90
44305;DHT22;30019;50.576;8.568;2024-01-06T13:32:13;5.50;99.90
44305;DHT22;30019;50.576;8.568;2024-01-06T13:34:40;5.50;99.90
44305;DHT22;30019;50.576;8.568;2024-01-06T13:37:07;5.60;99.90
44305;DHT22;30019;50.576;8.568;2024-01-06T13:39:33;5.50;99.90
44305;DHT22;30019;50.576;8.568;2024-01-06T13:41:58;5.60;99.90
44305;DHT22;30019;50.576;8.568;2024-01-06T13:44:24;5.60;99.90
44305;DHT22;30019;50.576;8.568;2024-01-06T13:46:49;5.60;99.90
44305;DHT22;30019;50.576;8.568;2024-01-06T13:49:16;5.60;99.90
44305;DHT22;30019;50.576;8.568;2024-01-06T13:51:43;5.60;99.90
44305;DHT22;30019;50.576;8.568;2024-01-06T13:54:09;5.60;99.90
44305;DHT22;30019;50.576;8.568;2024-01-06T13:56:34;5.60;99.90
44305;DHT22;30019;50.576;8.568;2024-01-06T13:59:00;5.60;99.90
44305;DHT22;30019;50.576;8.568;2024-01-06T14:01:25;5.70;99.90
44305;DHT22;30019;50.576;8.568;2024-01-06T14:03:51;5.70;99.90
44305;DHT22;30019;50.576;8.568;2024-01-06T14:06:24;5.70;99.90
44305;DHT22;30019;50.576;8.568;2024-01-06T14:08:50;5.60;99.90
44305;DHT22;30019;50.576;8.568;2024-01-06T14:11:16;5.60;99.90
44305;DHT22;30019;50.576;8.568;2024-01-06T14:13:41;5.60;99.90
44305;DHT22;30019;50.576;8.568;2024-01-06T14:16:07;5.60;99.90
44305;DHT22;30019;50.576;8.568;2024-01-06T14:18:33;5.60;99.90
44305;DHT22;30019;50.576;8.568;2024-01-06T14:20:59;5.60;99.90
44305;DHT22;30019;50.576;8.568;2024-01-06T14:23:24;5.60;99.90
44305;DHT22;30019;50.576;8.568;2024-01-06T14:25:50;5.50;99.90
44305;DHT22;30019;50.576;8.568;2024-01-06T14:28:15;5.50;99.90
44305;DHT22;30019;50.576;8.568;2024-01-06T14:30:41;5.50;99.90
44305;DHT22;30019;50.576;8.568;2024-01-06T14:33:06;5.50;99.90
44305;DHT22;30019;50.576;8.568;2024-01-06T14:35:32;5.60;99.90
44305;DHT22;30019;50.576;8.568;2024-01-06T14:37:58;5.50;99.90
44305;DHT22;30019;50.576;8.568;2024-01-06T14:40:23;5.50;99.90
44305;DHT22;30019;50.576;8.568;2024-01-06T14:42:49;5.50;99.90
44305;DHT22;30019;50.576;8.568;2024-01-06T14:45:15;5.50;99.90
44305;DHT22;30019;50.576;8.568;2024-01-06T14:47:41;5.50;99.90
44305;DHT22;30019;50.576;8.568;2024-01-06T14:50:06;5.40;99.90
44305;DHT22;30019;50.576;8.568;2024-01-06T14:52:32;5.40;99.90
44305;DHT22;30019;50.576;8.568;2024-01-06T14:54:57;5.40;99.90
44305;DHT22;30019;50.576;8.568;2024-01-06T14:57:24;5.40;99.90
44305;DHT22;30019;50.576;8.568;2024-01-06T14:59:49;5.40;99.90
44305;DHT22;30019;50.576;8.568;2024-01-06T15:02:15;5.40;99.90
44305;DHT22;30019;50.576;8.568;2024-01-06T15:04:41;5.30;99.90
44305;DHT22;30019;50.576;8.568;2024-01-06T15:07:07;5.40;99.90
44305;DHT22;30019;50.576;8.568;2024-01-06T15:09:32;5.40;99.90
44305;DHT22;30019;50.576;8.568;2024-01-06T15:11:58;5.30;99.90
44305;DHT22;30019;50.576;8.568;2024-01-06T15:14:23;5.30;99.90
44305;DHT22;30019;50.576;8.568;2024-01-06T15:16:48;5.30;99.90
44305;DHT22;30019;50.576;8.568;2024-01-06T15:19:14;5.30;99.90
44305;DHT22;30019;50.576;8.568;2024-01-06T15:21:39;5.30;99.90
44305;DHT22;30019;50.576;8.568;2024-01-06T15:24:05;5.20;99.90
44305;DHT22;30019;50.576;8.568;2024-01-06T15:26:30;5.30;99.90
44305;DHT22;30019;50.576;8.568;2024-01-06T15:28:56;5.20;99.90
44305;DHT22;30019;50.576;8.568;2024-01-06T15:31:23;5.20;99.90
44305;DHT22;30019;50.576;8.568;2024-01-06T15:33:49;5.20;99.90
44305;DHT22;30019;50.576;8.568;2024-01-06T15:36:15;5.20;99.90
44305;DHT22;30019;50.576;8.568;2024-01-06T15:38:40;5.20;99.90
44305;DHT22;30019;50.576;8.568;2024-01-06T15:41:06;5.20;99.90
44305;DHT22;30019;50.576;8.568;2024-01-06T15:43:32;5.10;99.90
44305;DHT22;30019;50.576;8.568;2024-01-06T15:45:57;5.20;99.90
44305;DHT22;30019;50.576;8.568;2024-01-06T15:48:23;5.10;99.90
44305;DHT22;30019;50.576;8.568;2024-01-06T15:50:49;5.20;99.90
44305;DHT22;30019;50.576;8.568;2024-01-06T15:53:14;5.20;99.90
44305;DHT22;30019;50.576;8.568;2024-01-06T15:55:40;5.10;99.90
44305;DHT22;30019;50.576;8.568;2024-01-06T15:58:06;5.10;99.90
44305;DHT22;30019;50.576;8.568;2024-01-06T16:00:31;5.10;99.90
44305;DHT22;30019;50.576;8.568;2024-01-06T16:02:57;5.10;99.90
44305;DHT22;30019;50.576;8.568;2024-01-06T16:05:24;5.10;99.90
44305;DHT22;30019;50.576;8.568;2024-01-06T16:07:50;5.10;99.90
44305;DHT22;30019;50.576;8.568;2024-01-06T16:10:20;5.10;99.90
44305;DHT22;30019;50.576;8.568;2024-01-06T16:12:48;5.10;99.90
44305;DHT22;30019;50.576;8.568;2024-01-06T16:15:14;5.10;99.90
44305;DHT22;30019;50.576;8.568;2024-01-06T16:17:39;5.10;99.90
44305;DHT22;30019;50.576;8.568;2024-01-06T16:20:05;5.10;99.90
44305;DHT22;30019;50.576;8.568;2024-01-06T16:22:31;5.10;99.90
44305;DHT22;30019;50.576;8.568;2024-01-06T16:24:56;5.10;99.90
44305;DHT22;30019;50.576;8.568;2024-01-06T16:27:22;5.10;99.90
44305;DHT22;30019;50.576;8.568;2024-01-06T16:29:48;5.10;99.90
44305;DHT22;30019;50.576;8.568;2024-01-06T16:32:13;5.10;99.90
44305;DHT22;30019;50.576;8.568;2024-01-06T16:34:39;5.20;99.90
44305;DHT22;30019;50.576;8.568;2024-01-06T16:37:06;5.20;99.90
44305;DHT22;30019;50.576;8.568;2024-01-06T16:39:32;5.00;99.90
44305;DHT22;30019;50.576;8.568;2024-01-06T16:41:58;5.10;99.90
44305;DHT22;30019;50.576;8.568;2024-01-06T16:44:24;5.10;99.90
44305;DHT22;30019;50.576;8.568;2024-01-06T16:46:49;5.20;99.90
44305;DHT22;30019;50.576;8.568;2024-01-06T16:49:15;5.00;99.90
44305;DHT22;30019;50.576;8.568;2024-01-06T16:51:41;5.00;99.90
44305;DHT22;30019;50.576;8.568;2024-01-06T16:54:06;5.00;99.90
44305;DHT22;30019;50.576;8.568;2024-01-06T16:56:32;5.10;99.90
44305;DHT22;30019;50.576;8.568;2024-01-06T16:58:57;5.10;99.90
44305;DHT22;30019;50.576;8.568;2024-01-06T17:01:23;5.10;99.90
44305;DHT22;30019;50.576;8.568;2024-01-06T17:03:49;5.10;99.90
44305;DHT22;30019;50.576;8.568;2024-01-06T17:06:14;5.00;99.90
44305;DHT22;30019;50.576;8.568;2024-01-06T17:08:40;5.00;99.90
44305;DHT22;30019;50.576;8.568;2024-01-06T17:11:06;5.00;99.90
44305;DHT22;30019;50.576;8.568;2024-01-06T17:13:31;5.20;99.90
44305;DHT22;30019;50.576;8.568;2024-01-06T17:15:57;3.70;99.90
44305;DHT22;30019;50.576;8.568;2024-01-06T17:18:22;5.90;99.90
44305;DHT22;30019;50.576;8.568;2024-01-06T17:20:48;5.00;99.90
44305;DHT22;30019;50.576;8.568;2024-01-06T17:23:13;5.00;99.90
44305;DHT22;30019;50.576;8.568;2024-01-06T17:25:39;5.00;99.90
44305;DHT22;30019;50.576;8.568;2024-01-06T17:28:04;5.00;99.90
44305;DHT22;30019;50.576;8.568;2024-01-06T17:30:30;5.00;99.90
44305;DHT22;30019;50.576;8.568;2024-01-06T17:32:55;4.90;99.90
44305;DHT22;30019;50.576;8.568;2024-01-06T17:35:21;4.90;99.90
44305;DHT22;30019;50.576;8.568;2024-01-06T17:37:46;4.90;99.90
44305;DHT22;30019;50.576;8.568;2024-01-06T17:40:12;4.90;99.90
44305;DHT22;30019;50.576;8.568;2024-01-06T17:42:38;4.90;99.90
44305;DHT22;30019;50.576;8.568;2024-01-06T17:45:04;4.90;99.90
44305;DHT22;30019;50.576;8.568;2024-01-06T17:47:31;4.90;99.90
44305;DHT22;30019;50.576;8.568;2024-01-06T17:49:56;4.90;99.90
44305;DHT22;30019;50.576;8.568;2024-01-06T17:52:22;4.90;99.90
44305;DHT22;30019;50.576;8.568;2024-01-06T17:54:51;4.90;99.90
44305;DHT22;30019;50.576;8.568;2024-01-06T17:57:16;4.90;99.90
44305;DHT22;30019;50.576;8.568;2024-01-06T17:59:43;4.90;99.90
44305;DHT22;30019;50.576;8.568;2024-01-06T18:02:09;4.90;99.90
44305;DHT22;30019;50.576;8.568;2024-01-06T18:04:34;4.80;99.90
44305;DHT22;30019;50.576;8.568;2024-01-06T18:07:00;4.80;99.90
44305;DHT22;30019;50.576;8.568;2024-01-06T18:09:25;4.90;99.90
44305;DHT22;30019;50.576;8.568;2024-01-06T18:11:53;4.80;99.90
44305;DHT22;30019;50.576;8.568;2024-01-06T18:14:18;4.80;99.90
44305;DHT22;30019;50.576;8.568;2024-01-06T18:16:44;4.80;99.90
44305;DHT22;30019;50.576;8.568;2024-01-06T18:19:10;4.90;99.90
44305;DHT22;30019;50.576;8.568;2024-01-06T18:21:35;4.90;99.90
44305;DHT22;30019;50.576;8.568;2024-01-06T18:24:01;4.80;99.90
44305;DHT22;30019;50.576;8.568;2024-01-06T18:26:26;4.80;99.90
44305;DHT22;30019;50.576;8.568;2024-01-06T18:28:52;4.90;99.90
44305;DHT22;30019;50.576;8.568;2024-01-06T18:31:18;4.90;99.90
44305;DHT22;30019;50.576;8.568;2024-01-06T18:33:43;4.90;99.90
44305;DHT22;30019;50.576;8.568;2024-01-06T18:36:09;4.80;99.90
44305;DHT22;30019;50.576;8.568;2024-01-06T18:38:34;4.80;99.90
44305;DHT22;30019;50.576;8.568;2024-01-06T18:41:00;4.80;99.90
44305;DHT22;30019;50.576;8.568;2024-01-06T18:43:26;4.80;99.90
44305;DHT22;30019;50.576;8.568;2024-01-06T18:45:53;4.80;99.90
44305;DHT22;30019;50.576;8.568;2024-01-06T18:48:18;4.80;99.90
44305;DHT22;30019;50.576;8.568;2024-01-06T18:50:44;4.80;99.90
44305;DHT22;30019;50.576;8.568;2024-01-06T18:53:11;4.80;99.90
44305;DHT22;30019;50.576;8.568;2024-01-06T18:55:37;4.80;99.90
44305;DHT22;30019;50.576;8.568;2024-01-06T18:58:03;4.80;99.90
44305;DHT22;30019;50.576;8.568;2024-01-06T19:00:29;4.80;99.90
44305;DHT22;30019;50.576;8.568;2024-01-06T19:02:54;4.80;99.90
44305;DHT22;30019;50.576;8.568;2024-01-06T19:05:20;4.80;99.90
44305;DHT22;30019;50.576;8.568;2024-01-06T19:07:46;4.80;99.90
44305;DHT22;30019;50.576;8.568;2024-01-06T19:10:12;4.80;99.90
44305;DHT22;30019;50.576;8.568;2024-01-06T19:12:38;4.80;99.90
44305;DHT22;30019;50.576;8.568;2024-01-06T19:15:04;4.80;99.90
44305;DHT22;30019;50.576;8.568;2024-01-06T19:17:29;4.70;99.90
44305;DHT22;30019;50.576;8.568;2024-01-06T19:19:55;4.70;99.90
44305;DHT22;30019;50.576;8.568;2024-01-06T19:22:20;4.70;99.90
44305;DHT22;30019;50.576;8.568;2024-01-06T19:24:48;4.70;99.90
44305;DHT22;30019;50.576;8.568;2024-01-06T19:27:13;4.70;99.90
44305;DHT22;30019;50.576;8.568;2024-01-06T19:29:39;4.70;99.90
44305;DHT22;30019;50.576;8.568;2024-01-06T19:32:08;4.70;99.90
44305;DHT22;30019;50.576;8.568;2024-01-06T19:34:34;4.70;99.90
44305;DHT22;30019;50.576;8.568;2024-01-06T19:37:00;4.70;99.90
44305;DHT22;30019;50.576;8.568;2024-01-06T19:39:26;4.70;99.90
44305;DHT22;30019;50.576;8.568;2024-01-06T19:41:53;4.80;99.90
44305;DHT22;30019;50.576;8.568;2024-01-06T19:44:19;4.90;99.90
44305;DHT22;30019;50.576;8.568;2024-01-06T19:46:44;4.90;99.90
44305;DHT22;30019;50.576;8.568;2024-01-06T19:49:10;4.80;99.90
44305;DHT22;30019;50.576;8.568;2024-01-06T19:51:36;4.70;99.90
44305;DHT22;30019;50.576;8.568;2024-01-06T19:54:02;4.90;99.90
44305;DHT22;30019;50.576;8.568;2024-01-06T19:56:27;5.00;99.90
44305;DHT22;30019;50.576;8.568;2024-01-06T19:58:53;4.90;99.90
44305;DHT22;30019;50.576;8.568;2024-01-06T20:01:18;4.80;99.90
44305;DHT22;30019;50.576;8.568;2024-01-06T20:03:44;4.90;99.90
44305;DHT22;30019;50.576;8.568;2024-01-06T20:06:09;4.90;99.90
44305;DHT22;30019;50.576;8.568;2024-01-06T20:08:35;4.90;99.90
44305;DHT22;30019;50.576;8.568;2024-01-06T20:11:00;4.80;99.90
44305;DHT22;30019;50.576;8.568;2024-01-06T20:13:26;4.90;99.90
44305;DHT22;30019;50.576;8.568;2024-01-06T20:15:53;4.70;99.90
44305;DHT22;30019;50.576;8.568;2024-01-06T20:18:20;4.60;99.90
44305;DHT22;30019;50.576;8.568;2024-01-06T20:20:46;4.70;99.90
44305;DHT22;30019;50.576;8.568;2024-01-06T20:23:12;4.70;99.90
44305;DHT22;30019;50.576;8.568;2024-01-06T20:25:37;4.70;99.90
44305;DHT22;30019;50.576;8.568;2024-01-06T20:28:07;4.80;99.90
44305;DHT22;30019;50.576;8.568;2024-01-06T20:30:33;4.70;99.90
44305;DHT22;30019;50.576;8.568;2024-01-06T20:32:58;4.70;99.90
44305;DHT22;30019;50.576;8.568;2024-01-06T20:35:24;4.70;99.90
44305;DHT22;30019;50.576;8.568;2024-01-06T20:37:49;4.70;99.90
44305;DHT22;30019;50.576;8.568;2024-01-06T20:40:15;4.70;99.90
44305;DHT22;30019;50.576;8.568;2024-01-06T20:42:41;4.70;99.90
44305;DHT22;30019;50.576;8.568;2024-01-06T20:45:07;4.70;99.90
44305;DHT22;30019;50.576;8.568;2024-01-06T20:47:33;4.60;99.90
44305;DHT22;30019;50.576;8.568;2024-01-06T20:49:58;4.60;99.90
44305;DHT22;30019;50.576;8.568;2024-01-06T20:52:24;4.60;99.90
44305;DHT22;30019;50.576;8.568;2024-01-06T20:54:49;4.60;99.90
44305;DHT22;30019;50.576;8.568;2024-01-06T20:57:15;4.60;99.90
44305;DHT22;30019;50.576;8.568;2024-01-06T20:59:40;4.60;99.90
44305;DHT22;30019;50.576;8.568;2024-01-06T21:02:06;4.70;99.90
44305;DHT22;30019;50.576;8.568;2024-01-06T21:04:31;4.60;99.90
44305;DHT22;30019;50.576;8.568;2024-01-06T21:06:57;4.70;99.90
44305;DHT22;30019;50.576;8.568;2024-01-06T21:09:22;4.60;99.90
44305;DHT22;30019;50.576;8.568;2024-01-06T21:11:51;4.70;99.90
44305;DHT22;30019;50.576;8.568;2024-01-06T21:14:17;4.80;99.90
44305;DHT22;30019;50.576;8.568;2024-01-06T21:16:42;4.80;99.90
44305;DHT22;30019;50.576;8.568;2024-01-06T21:19:08;4.70;99.90
44305;DHT22;30019;50.576;8.568;2024-01-06T21:21:33;4.60;99.90
44305;DHT22;30019;50.576;8.568;2024-01-06T21:23:59;4.50;99.90
44305;DHT22;30019;50.576;8.568;2024-01-06T21:26:25;4.50;99.90
44305;DHT22;30019;50.576;8.568;2024-01-06T21:28:50;4.50;99.90
44305;DHT22;30019;50.576;8.568;2024-01-06T21:31:16;4.60;99.90
44305;DHT22;30019;50.576;8.568;2024-01-06T21:33:43;4.40;99.90
44305;DHT22;30019;50.576;8.568;2024-01-06T21:36:09;4.40;99.90
44305;DHT22;30019;50.576;8.568;2024-01-06T21:38:34;4.50;99.90
44305;DHT22;30019;50.576;8.568;2024-01-06T21:41:00;4.40;99.90
44305;DHT22;30019;50.576;8.568;2024-01-06T21:43:25;4.50;99.90
44305;DHT22;30019;50.576;8.568;2024-01-06T21:45:51;4.50;99.90
44305;DHT22;30019;50.576;8.568;2024-01-06T21:48:17;4.60;99.90
44305;DHT22;30019;50.576;8.568;2024-01-06T21:50:42;4.60;99.90
44305;DHT22;30019;50.576;8.568;2024-01-06T21:53:08;4.60;99.90
44305;DHT22;30019;50.576;8.568;2024-01-06T21:55:34;4.70;99.90
44305;DHT22;30019;50.576;8.568;2024-01-06T21:57:59;4.70;99.90
44305;DHT22;30019;50.576;8.568;2024-01-06T22:00:25;4.60;99.90
44305;DHT22;30019;50.576;8.568;2024-01-06T22:02:50;4.50;99.90
44305;DHT22;30019;50.576;8.568;2024-01-06T22:05:16;4.40;99.90
44305;DHT22;30019;50.576;8.568;2024-01-06T22:07:42;4.40;99.90
44305;DHT22;30019;50.576;8.568;2024-01-06T22:10:07;4.40;99.90
44305;DHT22;30019;50.576;8.568;2024-01-06T22:12:33;4.30;99.90
44305;DHT22;30019;50.576;8.568;2024-01-06T22:14:59;4.30;99.90
44305;DHT22;30019;50.576;8.568;2024-01-06T22:17:24;4.30;99.90
44305;DHT22;30019;50.576;8.568;2024-01-06T22:19:50;4.30;99.90
44305;DHT22;30019;50.576;8.568;2024-01-06T22:22:15;4.20;99.90
44305;DHT22;30019;50.576;8.568;2024-01-06T22:24:41;4.20;99.90
44305;DHT22;30019;50.576;8.568;2024-01-06T22:27:09;4.20;99.90
44305;DHT22;30019;50.576;8.568;2024-01-06T22:29:35;4.20;99.90
44305;DHT22;30019;50.576;8.568;2024-01-06T22:32:00;4.20;99.90
44305;DHT22;30019;50.576;8.568;2024-01-06T22:34:26;4.20;99.90
44305;DHT22;30019;50.576;8.568;2024-01-06T22:36:51;4.20;99.90
44305;DHT22;30019;50.576;8.568;2024-01-06T22:39:18;4.20;99.90
44305;DHT22;30019;50.576;8.568;2024-01-06T22:41:44;4.30;99.90
44305;DHT22;30019;50.576;8.568;2024-01-06T22:44:11;4.30;99.90
44305;DHT22;30019;50.576;8.568;2024-01-06T22:46:36;4.20;99.90
44305;DHT22;30019;50.576;8.568;2024-01-06T22:49:02;4.10;99.90
44305;DHT22;30019;50.576;8.568;2024-01-06T22:51:27;4.10;99.90
44305;DHT22;30019;50.576;8.568;2024-01-06T22:53:53;4.20;99.90
44305;DHT22;30019;50.576;8.568;2024-01-06T22:56:19;4.00;99.90
44305;DHT22;30019;50.576;8.568;2024-01-06T22:58:44;4.00;99.90
44305;DHT22;30019;50.576;8.568;2024-01-06T23:01:09;4.00;99.90
44305;DHT22;30019;50.576;8.568;2024-01-06T23:03:35;3.90;99.90
44305;DHT22;30019;50.576;8.568;2024-01-06T23:06:02;3.90;99.90
44305;DHT22;30019;50.576;8.568;2024-01-06T23:08:30;3.90;99.90
44305;DHT22;30019;50.576;8.568;2024-01-06T23:10:56;4.10;99.90
44305;DHT22;30019;50.576;8.568;2024-01-06T23:13:21;4.10;99.90
44305;DHT22;30019;50.576;8.568;2024-01-06T23:15:46;4.10;99.90
44305;DHT22;30019;50.576;8.568;2024-01-06T23:18:12;4.10;99.90
44305;DHT22;30019;50.576;8.568;2024-01-06T23:20:38;4.10;99.90
44305;DHT22;30019;50.576;8.568;2024-01-06T23:23:03;4.20;99.90
44305;DHT22;30019;50.576;8.568;2024-01-06T23:25:29;4.10;99.90
44305;DHT22;30019;50.576;8.568;2024-01-06T23:27:54;4.10;99.90
44305;DHT22;30019;50.576;8.568;2024-01-06T23:30:20;4.10;99.90
44305;DHT22;30019;50.576;8.568;2024-01-06T23:32:45;4.10;99.90
44305;DHT22;30019;50.576;8.568;2024-01-06T23:35:11;4.10;99.90
44305;DHT22;30019;50.576;8.568;2024-01-06T23:37:36;4.00;99.90
44305;DHT22;30019;50.576;8.568;2024-01-06T23:42:28;3.90;99.90
44305;DHT22;30019;50.576;8.568;2024-01-06T23:44:54;3.90;99.90
44305;DHT22;30019;50.576;8.568;2024-01-06T23:47:19;3.90;99.90
44305;DHT22;30019;50.576;8.568;2024-01-06T23:49:44;3.90;99.90
44305;DHT22;30019;50.576;8.568;2024-01-06T23:52:10;3.90;99.90
44305;DHT22;30019;50.576;8.568;2024-01-06T23:54:39;3.90;99.90
44305;DHT22;30019;50.576;8.568;2024-01-06T23:57:04;3.80;99.90
44305;DHT22;30019;50.576;8.568;2024-01-06T23:59:30;3.80;99.90
